sensor_id;sensor_type;location;lat;lon;timestamp;P1;durP1;ratioP1;P2;durP2;ratioP2
65879;SDS011;52661;51.364;6.054;2022-08-19T00:02:02;19.33;;;11.93;;
65879;SDS011;52661;51.364;6.054;2022-08-19T00:04:29;19.88;;;12.23;;
65879;SDS011;52661;51.364;6.054;2022-08-19T00:06:57;24.60;;;14.05;;
65879;SDS011;52661;51.364;6.054;2022-08-19T00:09:23;22.48;;;13.75;;
65879;SDS011;52661;51.364;6.054;2022-08-19T00:11:50;23.38;;;14.02;;
65879;SDS011;52661;51.364;6.054;2022-08-19T00:14:16;25.48;;;16.15;;
65879;SDS011;52661;51.364;6.054;2022-08-19T00:16:43;23.20;;;13.23;;
65879;SDS011;52661;51.364;6.054;2022-08-19T00:19:10;22.75;;;15.05;;
65879;SDS011;52661;51.364;6.054;2022-08-19T00:21:36;23.55;;;13.55;;
65879;SDS011;52661;51.364;6.054;2022-08-19T00:24:04;21.08;;;13.25;;
65879;SDS011;52661;51.364;6.054;2022-08-19T00:26:31;23.50;;;13.77;;
65879;SDS011;52661;51.364;6.054;2022-08-19T00:28:56;22.10;;;13.63;;
65879;SDS011;52661;51.364;6.054;2022-08-19T00:31:21;22.70;;;14.50;;
65879;SDS011;52661;51.364;6.054;2022-08-19T00:33:47;23.73;;;14.52;;
65879;SDS011;52661;51.364;6.054;2022-08-19T00:36:15;24.73;;;14.27;;
65879;SDS011;52661;51.364;6.054;2022-08-19T00:38:41;25.05;;;16.05;;
65879;SDS011;52661;51.364;6.054;2022-08-19T00:41:08;22.60;;;13.93;;
65879;SDS011;52661;51.364;6.054;2022-08-19T00:43:42;22.38;;;12.18;;
65879;SDS011;52661;51.364;6.054;2022-08-19T00:46:08;20.48;;;13.10;;
65879;SDS011;52661;51.364;6.054;2022-08-19T00:48:33;22.17;;;12.95;;
65879;SDS011;52661;51.364;6.054;2022-08-19T00:51:01;23.20;;;13.05;;
65879;SDS011;52661;51.364;6.054;2022-08-19T00:53:27;22.45;;;12.77;;
65879;SDS011;52661;51.364;6.054;2022-08-19T00:55:56;21.95;;;13.90;;
65879;SDS011;52661;51.364;6.054;2022-08-19T00:58:25;19.70;;;12.52;;
65879;SDS011;52661;51.364;6.054;2022-08-19T01:00:55;22.95;;;13.57;;
65879;SDS011;52661;51.364;6.054;2022-08-19T01:03:21;22.15;;;14.05;;
65879;SDS011;52661;51.364;6.054;2022-08-19T01:05:48;24.13;;;14.07;;
65879;SDS011;52661;51.364;6.054;2022-08-19T01:08:16;20.83;;;13.18;;
65879;SDS011;52661;51.364;6.054;2022-08-19T01:10:43;21.48;;;12.82;;
65879;SDS011;52661;51.364;6.054;2022-08-19T01:13:13;26.30;;;16.30;;
65879;SDS011;52661;51.364;6.054;2022-08-19T01:15:42;25.48;;;14.65;;
65879;SDS011;52661;51.364;6.054;2022-08-19T01:18:12;22.90;;;13.82;;
65879;SDS011;52661;51.364;6.054;2022-08-19T01:20:40;24.60;;;13.57;;
65879;SDS011;52661;51.364;6.054;2022-08-19T01:23:06;23.80;;;15.15;;
65879;SDS011;52661;51.364;6.054;2022-08-19T01:25:35;25.27;;;14.55;;
65879;SDS011;52661;51.364;6.054;2022-08-19T01:30:32;22.33;;;13.52;;
65879;SDS011;52661;51.364;6.054;2022-08-19T01:32:59;24.45;;;14.35;;
65879;SDS011;52661;51.364;6.054;2022-08-19T01:35:26;25.20;;;14.43;;
65879;SDS011;52661;51.364;6.054;2022-08-19T01:37:58;23.08;;;14.02;;
65879;SDS011;52661;51.364;6.054;2022-08-19T01:40:27;22.90;;;13.75;;
65879;SDS011;52661;51.364;6.054;2022-08-19T01:42:56;23.50;;;13.30;;
65879;SDS011;52661;51.364;6.054;2022-08-19T01:45:23;19.83;;;12.25;;
65879;SDS011;52661;51.364;6.054;2022-08-19T01:47:50;20.05;;;12.88;;
65879;SDS011;52661;51.364;6.054;2022-08-19T01:50:16;19.55;;;11.85;;
65879;SDS011;52661;51.364;6.054;2022-08-19T01:52:42;20.88;;;12.38;;
65879;SDS011;52661;51.364;6.054;2022-08-19T01:55:10;21.08;;;13.05;;
65879;SDS011;52661;51.364;6.054;2022-08-19T01:57:37;24.40;;;14.25;;
65879;SDS011;52661;51.364;6.054;2022-08-19T02:00:06;21.40;;;13.20;;
65879;SDS011;52661;51.364;6.054;2022-08-19T02:02:36;20.85;;;12.10;;
65879;SDS011;52661;51.364;6.054;2022-08-19T02:05:01;19.93;;;12.70;;
65879;SDS011;52661;51.364;6.054;2022-08-19T02:07:27;20.77;;;11.68;;
65879;SDS011;52661;51.364;6.054;2022-08-19T02:09:54;18.52;;;11.30;;
65879;SDS011;52661;51.364;6.054;2022-08-19T02:12:20;21.55;;;13.05;;
65879;SDS011;52661;51.364;6.054;2022-08-19T02:14:46;18.92;;;12.02;;
65879;SDS011;52661;51.364;6.054;2022-08-19T02:17:11;22.60;;;13.13;;
65879;SDS011;52661;51.364;6.054;2022-08-19T02:19:37;25.90;;;17.03;;
65879;SDS011;52661;51.364;6.054;2022-08-19T02:22:02;25.55;;;15.00;;
65879;SDS011;52661;51.364;6.054;2022-08-19T02:24:28;23.88;;;15.05;;
65879;SDS011;52661;51.364;6.054;2022-08-19T02:26:53;25.35;;;15.68;;
65879;SDS011;52661;51.364;6.054;2022-08-19T02:29:19;28.55;;;16.88;;
65879;SDS011;52661;51.364;6.054;2022-08-19T02:31:45;27.48;;;16.02;;
65879;SDS011;52661;51.364;6.054;2022-08-19T02:34:10;25.73;;;15.77;;
65879;SDS011;52661;51.364;6.054;2022-08-19T02:36:35;30.52;;;18.92;;
65879;SDS011;52661;51.364;6.054;2022-08-19T02:39:01;27.25;;;16.33;;
65879;SDS011;52661;51.364;6.054;2022-08-19T02:41:29;27.35;;;17.13;;
65879;SDS011;52661;51.364;6.054;2022-08-19T02:43:56;27.63;;;16.70;;
65879;SDS011;52661;51.364;6.054;2022-08-19T02:48:53;27.45;;;16.90;;
65879;SDS011;52661;51.364;6.054;2022-08-19T02:51:26;26.92;;;16.92;;
65879;SDS011;52661;51.364;6.054;2022-08-19T02:53:54;28.65;;;17.85;;
65879;SDS011;52661;51.364;6.054;2022-08-19T02:56:20;27.02;;;16.38;;
65879;SDS011;52661;51.364;6.054;2022-08-19T02:58:47;30.67;;;17.30;;
65879;SDS011;52661;51.364;6.054;2022-08-19T03:01:20;28.27;;;16.17;;
65879;SDS011;52661;51.364;6.054;2022-08-19T03:03:49;29.73;;;16.10;;
65879;SDS011;52661;51.364;6.054;2022-08-19T03:06:15;29.58;;;16.38;;
65879;SDS011;52661;51.364;6.054;2022-08-19T03:08:42;27.85;;;16.15;;
65879;SDS011;52661;51.364;6.054;2022-08-19T03:11:51;29.20;;;16.75;;
65879;SDS011;52661;51.364;6.054;2022-08-19T03:13:58;26.33;;;16.08;;
65879;SDS011;52661;51.364;6.054;2022-08-19T03:16:26;27.75;;;15.88;;
65879;SDS011;52661;51.364;6.054;2022-08-19T03:18:53;27.95;;;16.95;;
65879;SDS011;52661;51.364;6.054;2022-08-19T03:21:20;27.92;;;16.05;;
65879;SDS011;52661;51.364;6.054;2022-08-19T03:23:48;29.33;;;16.17;;
65879;SDS011;52661;51.364;6.054;2022-08-19T03:26:14;28.40;;;17.05;;
65879;SDS011;52661;51.364;6.054;2022-08-19T03:28:41;29.40;;;16.00;;
65879;SDS011;52661;51.364;6.054;2022-08-19T03:31:08;29.80;;;16.80;;
65879;SDS011;52661;51.364;6.054;2022-08-19T03:33:36;30.55;;;16.50;;
65879;SDS011;52661;51.364;6.054;2022-08-19T03:36:13;28.08;;;15.85;;
65879;SDS011;52661;51.364;6.054;2022-08-19T03:38:42;26.77;;;15.85;;
65879;SDS011;52661;51.364;6.054;2022-08-19T03:41:10;29.88;;;19.42;;
65879;SDS011;52661;51.364;6.054;2022-08-19T03:43:38;26.23;;;15.23;;
65879;SDS011;52661;51.364;6.054;2022-08-19T03:46:06;27.83;;;18.15;;
65879;SDS011;52661;51.364;6.054;2022-08-19T03:48:34;26.17;;;15.30;;
65879;SDS011;52661;51.364;6.054;2022-08-19T03:50:59;28.33;;;15.48;;
65879;SDS011;52661;51.364;6.054;2022-08-19T03:53:26;24.48;;;15.35;;
65879;SDS011;52661;51.364;6.054;2022-08-19T03:55:52;26.38;;;14.90;;
65879;SDS011;52661;51.364;6.054;2022-08-19T03:58:18;27.48;;;15.70;;
65879;SDS011;52661;51.364;6.054;2022-08-19T04:00:44;28.52;;;16.05;;
65879;SDS011;52661;51.364;6.054;2022-08-19T04:03:09;27.80;;;16.15;;
65879;SDS011;52661;51.364;6.054;2022-08-19T04:05:35;28.60;;;15.82;;
65879;SDS011;52661;51.364;6.054;2022-08-19T04:08:00;29.58;;;15.88;;
65879;SDS011;52661;51.364;6.054;2022-08-19T04:10:26;25.48;;;14.93;;
65879;SDS011;52661;51.364;6.054;2022-08-19T04:12:53;28.77;;;15.77;;
65879;SDS011;52661;51.364;6.054;2022-08-19T04:15:18;32.72;;;18.15;;
65879;SDS011;52661;51.364;6.054;2022-08-19T04:17:44;28.10;;;15.50;;
65879;SDS011;52661;51.364;6.054;2022-08-19T04:20:09;27.85;;;15.55;;
65879;SDS011;52661;51.364;6.054;2022-08-19T04:22:35;30.85;;;16.00;;
65879;SDS011;52661;51.364;6.054;2022-08-19T04:25:00;28.45;;;15.20;;
65879;SDS011;52661;51.364;6.054;2022-08-19T04:27:26;29.88;;;16.02;;
65879;SDS011;52661;51.364;6.054;2022-08-19T04:29:51;30.42;;;16.08;;
65879;SDS011;52661;51.364;6.054;2022-08-19T04:32:19;31.48;;;17.05;;
65879;SDS011;52661;51.364;6.054;2022-08-19T04:34:44;29.75;;;16.02;;
65879;SDS011;52661;51.364;6.054;2022-08-19T04:37:09;27.63;;;15.63;;
65879;SDS011;52661;51.364;6.054;2022-08-19T04:39:37;28.38;;;16.33;;
65879;SDS011;52661;51.364;6.054;2022-08-19T04:42:21;29.75;;;15.10;;
65879;SDS011;52661;51.364;6.054;2022-08-19T04:45:10;30.52;;;15.93;;
65879;SDS011;52661;51.364;6.054;2022-08-19T04:47:39;32.75;;;17.25;;
65879;SDS011;52661;51.364;6.054;2022-08-19T04:50:09;28.83;;;15.50;;
65879;SDS011;52661;51.364;6.054;2022-08-19T04:52:36;31.88;;;15.98;;
65879;SDS011;52661;51.364;6.054;2022-08-19T04:55:02;28.45;;;15.25;;
65879;SDS011;52661;51.364;6.054;2022-08-19T04:57:28;28.05;;;14.93;;
65879;SDS011;52661;51.364;6.054;2022-08-19T04:59:54;27.70;;;15.07;;
65879;SDS011;52661;51.364;6.054;2022-08-19T05:02:20;27.77;;;14.68;;
65879;SDS011;52661;51.364;6.054;2022-08-19T05:07:13;27.60;;;14.18;;
65879;SDS011;52661;51.364;6.054;2022-08-19T05:09:38;27.80;;;17.00;;
65879;SDS011;52661;51.364;6.054;2022-08-19T05:12:04;29.40;;;15.98;;
65879;SDS011;52661;51.364;6.054;2022-08-19T05:14:30;27.92;;;15.18;;
65879;SDS011;52661;51.364;6.054;2022-08-19T05:16:56;27.92;;;15.32;;
65879;SDS011;52661;51.364;6.054;2022-08-19T05:19:21;32.53;;;16.37;;
65879;SDS011;52661;51.364;6.054;2022-08-19T05:22:05;30.13;;;15.77;;
65879;SDS011;52661;51.364;6.054;2022-08-19T05:24:49;28.77;;;15.52;;
65879;SDS011;52661;51.364;6.054;2022-08-19T05:27:15;27.48;;;15.38;;
65879;SDS011;52661;51.364;6.054;2022-08-19T05:29:40;29.08;;;15.55;;
65879;SDS011;52661;51.364;6.054;2022-08-19T05:32:05;29.17;;;14.30;;
65879;SDS011;52661;51.364;6.054;2022-08-19T05:34:35;28.80;;;14.25;;
65879;SDS011;52661;51.364;6.054;2022-08-19T05:39:30;33.42;;;16.80;;
65879;SDS011;52661;51.364;6.054;2022-08-19T05:41:59;31.67;;;16.15;;
65879;SDS011;52661;51.364;6.054;2022-08-19T05:44:28;32.40;;;16.85;;
65879;SDS011;52661;51.364;6.054;2022-08-19T05:46:59;32.00;;;15.45;;
65879;SDS011;52661;51.364;6.054;2022-08-19T05:49:26;33.13;;;16.65;;
65879;SDS011;52661;51.364;6.054;2022-08-19T05:51:52;32.40;;;16.17;;
65879;SDS011;52661;51.364;6.054;2022-08-19T05:54:18;36.05;;;17.45;;
65879;SDS011;52661;51.364;6.054;2022-08-19T05:56:44;33.88;;;17.17;;
65879;SDS011;52661;51.364;6.054;2022-08-19T05:59:13;36.53;;;17.52;;
65879;SDS011;52661;51.364;6.054;2022-08-19T06:01:40;34.70;;;17.15;;
65879;SDS011;52661;51.364;6.054;2022-08-19T06:04:07;37.45;;;17.25;;
65879;SDS011;52661;51.364;6.054;2022-08-19T06:06:34;34.67;;;17.13;;
65879;SDS011;52661;51.364;6.054;2022-08-19T06:09:03;35.55;;;18.20;;
65879;SDS011;52661;51.364;6.054;2022-08-19T06:14:06;37.00;;;19.05;;
65879;SDS011;52661;51.364;6.054;2022-08-19T06:16:38;40.70;;;18.80;;
65879;SDS011;52661;51.364;6.054;2022-08-19T06:19:07;47.88;;;21.73;;
65879;SDS011;52661;51.364;6.054;2022-08-19T06:21:35;41.25;;;19.70;;
65879;SDS011;52661;51.364;6.054;2022-08-19T06:24:02;50.42;;;22.38;;
65879;SDS011;52661;51.364;6.054;2022-08-19T06:26:29;44.75;;;18.83;;
65879;SDS011;52661;51.364;6.054;2022-08-19T06:28:56;44.17;;;18.80;;
65879;SDS011;52661;51.364;6.054;2022-08-19T06:31:23;41.45;;;19.48;;
65879;SDS011;52661;51.364;6.054;2022-08-19T06:33:51;42.72;;;19.35;;
65879;SDS011;52661;51.364;6.054;2022-08-19T06:36:18;42.40;;;18.27;;
65879;SDS011;52661;51.364;6.054;2022-08-19T06:38:44;39.40;;;20.27;;
65879;SDS011;52661;51.364;6.054;2022-08-19T06:41:09;42.42;;;19.00;;
65879;SDS011;52661;51.364;6.054;2022-08-19T06:43:35;42.30;;;19.33;;
65879;SDS011;52661;51.364;6.054;2022-08-19T06:46:01;39.03;;;17.73;;
65879;SDS011;52661;51.364;6.054;2022-08-19T06:48:28;42.15;;;18.38;;
65879;SDS011;52661;51.364;6.054;2022-08-19T06:50:53;43.40;;;19.00;;
65879;SDS011;52661;51.364;6.054;2022-08-19T06:53:19;45.95;;;19.48;;
65879;SDS011;52661;51.364;6.054;2022-08-19T06:55:45;42.53;;;19.42;;
65879;SDS011;52661;51.364;6.054;2022-08-19T06:58:10;42.63;;;16.75;;
65879;SDS011;52661;51.364;6.054;2022-08-19T07:00:36;47.53;;;19.70;;
65879;SDS011;52661;51.364;6.054;2022-08-19T07:03:02;44.17;;;19.23;;
65879;SDS011;52661;51.364;6.054;2022-08-19T07:05:27;41.03;;;18.63;;
65879;SDS011;52661;51.364;6.054;2022-08-19T07:07:53;42.65;;;19.63;;
65879;SDS011;52661;51.364;6.054;2022-08-19T07:10:18;41.47;;;19.15;;
65879;SDS011;52661;51.364;6.054;2022-08-19T07:12:44;43.78;;;19.13;;
65879;SDS011;52661;51.364;6.054;2022-08-19T07:15:10;46.35;;;18.55;;
65879;SDS011;52661;51.364;6.054;2022-08-19T07:17:36;44.55;;;19.05;;
65879;SDS011;52661;51.364;6.054;2022-08-19T07:20:04;40.47;;;18.08;;
65879;SDS011;52661;51.364;6.054;2022-08-19T07:22:32;30.88;;;13.68;;
65879;SDS011;52661;51.364;6.054;2022-08-19T07:24:59;30.95;;;14.40;;
65879;SDS011;52661;51.364;6.054;2022-08-19T07:27:24;39.35;;;17.08;;
65879;SDS011;52661;51.364;6.054;2022-08-19T07:29:50;41.63;;;17.52;;
65879;SDS011;52661;51.364;6.054;2022-08-19T07:32:15;38.83;;;16.88;;
65879;SDS011;52661;51.364;6.054;2022-08-19T07:34:41;40.70;;;17.38;;
65879;SDS011;52661;51.364;6.054;2022-08-19T07:37:06;37.53;;;16.57;;
65879;SDS011;52661;51.364;6.054;2022-08-19T07:39:33;39.15;;;17.65;;
65879;SDS011;52661;51.364;6.054;2022-08-19T07:42:02;35.88;;;15.07;;
65879;SDS011;52661;51.364;6.054;2022-08-19T07:44:32;36.00;;;15.88;;
65879;SDS011;52661;51.364;6.054;2022-08-19T07:46:58;37.22;;;15.90;;
65879;SDS011;52661;51.364;6.054;2022-08-19T07:49:25;34.85;;;15.23;;
65879;SDS011;52661;51.364;6.054;2022-08-19T07:51:52;41.20;;;17.17;;
65879;SDS011;52661;51.364;6.054;2022-08-19T07:54:20;37.40;;;16.67;;
65879;SDS011;52661;51.364;6.054;2022-08-19T07:56:47;36.83;;;16.27;;
65879;SDS011;52661;51.364;6.054;2022-08-19T07:59:12;38.10;;;17.00;;
65879;SDS011;52661;51.364;6.054;2022-08-19T08:01:38;33.72;;;15.57;;
65879;SDS011;52661;51.364;6.054;2022-08-19T08:04:05;37.47;;;15.30;;
65879;SDS011;52661;51.364;6.054;2022-08-19T08:06:50;36.30;;;15.80;;
65879;SDS011;52661;51.364;6.054;2022-08-19T08:09:36;36.65;;;15.57;;
65879;SDS011;52661;51.364;6.054;2022-08-19T08:14:36;31.23;;;15.32;;
65879;SDS011;52661;51.364;6.054;2022-08-19T08:17:05;35.75;;;15.27;;
65879;SDS011;52661;51.364;6.054;2022-08-19T08:19:31;33.03;;;14.63;;
65879;SDS011;52661;51.364;6.054;2022-08-19T08:21:57;38.80;;;16.85;;
65879;SDS011;52661;51.364;6.054;2022-08-19T08:24:25;36.72;;;16.65;;
65879;SDS011;52661;51.364;6.054;2022-08-19T08:26:51;36.55;;;16.58;;
65879;SDS011;52661;51.364;6.054;2022-08-19T08:29:17;36.60;;;17.52;;
65879;SDS011;52661;51.364;6.054;2022-08-19T08:31:44;33.85;;;15.50;;
65879;SDS011;52661;51.364;6.054;2022-08-19T08:34:12;29.95;;;13.77;;
65879;SDS011;52661;51.364;6.054;2022-08-19T08:36:42;32.47;;;13.18;;
65879;SDS011;52661;51.364;6.054;2022-08-19T08:39:11;32.72;;;13.65;;
65879;SDS011;52661;51.364;6.054;2022-08-19T08:44:53;26.70;;;12.65;;
65879;SDS011;52661;51.364;6.054;2022-08-19T08:47:31;27.52;;;12.63;;
65879;SDS011;52661;51.364;6.054;2022-08-19T08:52:31;26.80;;;11.68;;
65879;SDS011;52661;51.364;6.054;2022-08-19T08:55:03;27.17;;;13.10;;
65879;SDS011;52661;51.364;6.054;2022-08-19T08:57:40;27.92;;;12.48;;
65879;SDS011;52661;51.364;6.054;2022-08-19T09:00:26;26.08;;;10.10;;
65879;SDS011;52661;51.364;6.054;2022-08-19T09:02:55;20.88;;;10.18;;
65879;SDS011;52661;51.364;6.054;2022-08-19T09:05:22;29.73;;;12.63;;
65879;SDS011;52661;51.364;6.054;2022-08-19T09:07:59;24.20;;;9.55;;
65879;SDS011;52661;51.364;6.054;2022-08-19T09:16:13;16.70;;;7.43;;
65879;SDS011;52661;51.364;6.054;2022-08-19T09:18:43;17.98;;;8.57;;
65879;SDS011;52661;51.364;6.054;2022-08-19T09:21:16;18.92;;;8.80;;
65879;SDS011;52661;51.364;6.054;2022-08-19T09:23:42;24.88;;;8.15;;
65879;SDS011;52661;51.364;6.054;2022-08-19T09:26:09;18.05;;;7.00;;
65879;SDS011;52661;51.364;6.054;2022-08-19T09:28:38;16.27;;;7.97;;
65879;SDS011;52661;51.364;6.054;2022-08-19T09:31:08;16.52;;;8.25;;
65879;SDS011;52661;51.364;6.054;2022-08-19T09:33:45;18.88;;;8.45;;
65879;SDS011;52661;51.364;6.054;2022-08-19T09:36:12;20.67;;;7.80;;
65879;SDS011;52661;51.364;6.054;2022-08-19T09:38:39;19.58;;;8.02;;
65879;SDS011;52661;51.364;6.054;2022-08-19T09:41:07;16.35;;;7.90;;
65879;SDS011;52661;51.364;6.054;2022-08-19T09:43:38;21.48;;;8.95;;
65879;SDS011;52661;51.364;6.054;2022-08-19T09:46:05;15.73;;;7.68;;
65879;SDS011;52661;51.364;6.054;2022-08-19T09:48:32;14.25;;;6.22;;
65879;SDS011;52661;51.364;6.054;2022-08-19T09:51:09;16.60;;;7.10;;
65879;SDS011;52661;51.364;6.054;2022-08-19T09:53:42;12.50;;;6.25;;
65879;SDS011;52661;51.364;6.054;2022-08-19T09:56:09;15.02;;;7.10;;
65879;SDS011;52661;51.364;6.054;2022-08-19T09:58:35;15.23;;;7.35;;
65879;SDS011;52661;51.364;6.054;2022-08-19T10:01:02;13.48;;;6.45;;
65879;SDS011;52661;51.364;6.054;2022-08-19T10:03:29;14.40;;;7.50;;
65879;SDS011;52661;51.364;6.054;2022-08-19T10:05:58;15.23;;;7.13;;
65879;SDS011;52661;51.364;6.054;2022-08-19T10:08:29;15.02;;;7.72;;
65879;SDS011;52661;51.364;6.054;2022-08-19T10:10:56;16.10;;;8.13;;
65879;SDS011;52661;51.364;6.054;2022-08-19T10:13:23;16.52;;;7.15;;
65879;SDS011;52661;51.364;6.054;2022-08-19T10:15:54;23.02;;;9.25;;
65879;SDS011;52661;51.364;6.054;2022-08-19T10:18:22;18.33;;;8.02;;
65879;SDS011;52661;51.364;6.054;2022-08-19T10:20:49;15.23;;;7.53;;
65879;SDS011;52661;51.364;6.054;2022-08-19T10:23:17;16.00;;;8.13;;
65879;SDS011;52661;51.364;6.054;2022-08-19T10:25:44;15.07;;;6.88;;
65879;SDS011;52661;51.364;6.054;2022-08-19T10:28:10;13.38;;;7.15;;
65879;SDS011;52661;51.364;6.054;2022-08-19T10:30:37;11.32;;;6.20;;
65879;SDS011;52661;51.364;6.054;2022-08-19T10:33:03;13.68;;;6.57;;
65879;SDS011;52661;51.364;6.054;2022-08-19T10:35:28;12.75;;;6.38;;
65879;SDS011;52661;51.364;6.054;2022-08-19T10:37:54;14.85;;;6.68;;
65879;SDS011;52661;51.364;6.054;2022-08-19T10:40:24;10.82;;;4.97;;
65879;SDS011;52661;51.364;6.054;2022-08-19T10:42:51;13.23;;;7.80;;
65879;SDS011;52661;51.364;6.054;2022-08-19T10:45:17;10.00;;;5.20;;
65879;SDS011;52661;51.364;6.054;2022-08-19T10:47:42;10.48;;;5.40;;
65879;SDS011;52661;51.364;6.054;2022-08-19T10:50:08;9.27;;;4.63;;
65879;SDS011;52661;51.364;6.054;2022-08-19T10:52:52;9.98;;;4.63;;
65879;SDS011;52661;51.364;6.054;2022-08-19T10:55:18;8.73;;;4.80;;
65879;SDS011;52661;51.364;6.054;2022-08-19T10:58:09;10.57;;;7.22;;
65879;SDS011;52661;51.364;6.054;2022-08-19T11:00:39;10.32;;;4.47;;
65879;SDS011;52661;51.364;6.054;2022-08-19T11:03:05;9.38;;;5.15;;
65879;SDS011;52661;51.364;6.054;2022-08-19T11:05:31;11.23;;;4.68;;
65879;SDS011;52661;51.364;6.054;2022-08-19T11:07:56;11.20;;;5.57;;
65879;SDS011;52661;51.364;6.054;2022-08-19T11:10:22;11.97;;;6.23;;
65879;SDS011;52661;51.364;6.054;2022-08-19T11:12:48;12.32;;;5.45;;
65879;SDS011;52661;51.364;6.054;2022-08-19T11:15:17;9.75;;;5.03;;
65879;SDS011;52661;51.364;6.054;2022-08-19T11:17:43;10.90;;;4.43;;
65879;SDS011;52661;51.364;6.054;2022-08-19T11:20:09;9.20;;;3.92;;
65879;SDS011;52661;51.364;6.054;2022-08-19T11:22:37;8.02;;;4.28;;
65879;SDS011;52661;51.364;6.054;2022-08-19T11:25:03;10.10;;;3.97;;
65879;SDS011;52661;51.364;6.054;2022-08-19T11:27:29;8.20;;;4.20;;
65879;SDS011;52661;51.364;6.054;2022-08-19T11:29:54;6.50;;;3.80;;
65879;SDS011;52661;51.364;6.054;2022-08-19T11:32:20;7.10;;;3.97;;
65879;SDS011;52661;51.364;6.054;2022-08-19T11:34:45;10.95;;;4.10;;
65879;SDS011;52661;51.364;6.054;2022-08-19T11:37:10;7.13;;;3.95;;
65879;SDS011;52661;51.364;6.054;2022-08-19T11:39:36;8.65;;;3.40;;
65879;SDS011;52661;51.364;6.054;2022-08-19T11:42:03;9.73;;;4.32;;
65879;SDS011;52661;51.364;6.054;2022-08-19T11:44:50;7.68;;;3.60;;
65879;SDS011;52661;51.364;6.054;2022-08-19T11:47:16;9.68;;;4.40;;
65879;SDS011;52661;51.364;6.054;2022-08-19T11:49:41;5.93;;;3.53;;
65879;SDS011;52661;51.364;6.054;2022-08-19T11:52:07;5.65;;;3.30;;
65879;SDS011;52661;51.364;6.054;2022-08-19T11:54:34;8.90;;;4.43;;
65879;SDS011;52661;51.364;6.054;2022-08-19T11:57:00;9.15;;;5.32;;
65879;SDS011;52661;51.364;6.054;2022-08-19T11:59:28;8.93;;;4.72;;
65879;SDS011;52661;51.364;6.054;2022-08-19T12:01:54;9.90;;;6.47;;
65879;SDS011;52661;51.364;6.054;2022-08-19T12:04:21;12.52;;;5.95;;
65879;SDS011;52661;51.364;6.054;2022-08-19T12:06:47;10.57;;;5.68;;
65879;SDS011;52661;51.364;6.054;2022-08-19T12:09:13;10.68;;;5.10;;
65879;SDS011;52661;51.364;6.054;2022-08-19T12:11:40;11.68;;;5.40;;
65879;SDS011;52661;51.364;6.054;2022-08-19T12:14:08;12.70;;;7.45;;
65879;SDS011;52661;51.364;6.054;2022-08-19T12:16:35;9.93;;;4.68;;
65879;SDS011;52661;51.364;6.054;2022-08-19T12:19:01;7.68;;;4.35;;
65879;SDS011;52661;51.364;6.054;2022-08-19T12:21:29;10.13;;;4.28;;
65879;SDS011;52661;51.364;6.054;2022-08-19T12:23:57;8.98;;;5.07;;
65879;SDS011;52661;51.364;6.054;2022-08-19T12:26:24;9.52;;;4.80;;
65879;SDS011;52661;51.364;6.054;2022-08-19T12:28:51;8.43;;;4.50;;
65879;SDS011;52661;51.364;6.054;2022-08-19T12:31:16;9.10;;;4.47;;
65879;SDS011;52661;51.364;6.054;2022-08-19T12:33:42;8.57;;;4.18;;
65879;SDS011;52661;51.364;6.054;2022-08-19T12:36:09;7.15;;;4.45;;
65879;SDS011;52661;51.364;6.054;2022-08-19T12:38:37;8.88;;;3.88;;
65879;SDS011;52661;51.364;6.054;2022-08-19T12:41:04;7.82;;;3.60;;
65879;SDS011;52661;51.364;6.054;2022-08-19T12:43:34;6.63;;;4.28;;
65879;SDS011;52661;51.364;6.054;2022-08-19T12:46:02;6.95;;;3.70;;
65879;SDS011;52661;51.364;6.054;2022-08-19T12:48:31;9.75;;;3.92;;
65879;SDS011;52661;51.364;6.054;2022-08-19T12:50:58;9.30;;;3.90;;
65879;SDS011;52661;51.364;6.054;2022-08-19T12:53:23;7.90;;;3.30;;
65879;SDS011;52661;51.364;6.054;2022-08-19T12:55:56;7.70;;;3.50;;
65879;SDS011;52661;51.364;6.054;2022-08-19T12:58:22;8.45;;;3.85;;
65879;SDS011;52661;51.364;6.054;2022-08-19T13:00:48;7.55;;;3.75;;
65879;SDS011;52661;51.364;6.054;2022-08-19T13:03:14;4.35;;;2.85;;
65879;SDS011;52661;51.364;6.054;2022-08-19T13:05:40;5.75;;;2.63;;
65879;SDS011;52661;51.364;6.054;2022-08-19T13:08:06;5.93;;;2.95;;
65879;SDS011;52661;51.364;6.054;2022-08-19T13:10:32;6.10;;;2.80;;
65879;SDS011;52661;51.364;6.054;2022-08-19T13:12:59;9.27;;;4.15;;
65879;SDS011;52661;51.364;6.054;2022-08-19T13:15:26;6.85;;;3.60;;
65879;SDS011;52661;51.364;6.054;2022-08-19T13:17:53;10.82;;;4.40;;
65879;SDS011;52661;51.364;6.054;2022-08-19T13:20:20;8.52;;;4.15;;
65879;SDS011;52661;51.364;6.054;2022-08-19T13:22:47;10.48;;;4.40;;
65879;SDS011;52661;51.364;6.054;2022-08-19T13:25:13;8.15;;;4.25;;
65879;SDS011;52661;51.364;6.054;2022-08-19T13:27:42;10.95;;;4.35;;
65879;SDS011;52661;51.364;6.054;2022-08-19T13:30:09;9.93;;;4.72;;
65879;SDS011;52661;51.364;6.054;2022-08-19T13:32:55;10.25;;;4.63;;
65879;SDS011;52661;51.364;6.054;2022-08-19T13:35:36;9.32;;;4.85;;
65879;SDS011;52661;51.364;6.054;2022-08-19T13:38:07;8.40;;;4.53;;
65879;SDS011;52661;51.364;6.054;2022-08-19T13:40:33;11.65;;;5.38;;
65879;SDS011;52661;51.364;6.054;2022-08-19T13:42:59;11.35;;;5.78;;
65879;SDS011;52661;51.364;6.054;2022-08-19T13:45:26;8.85;;;5.20;;
65879;SDS011;52661;51.364;6.054;2022-08-19T13:47:54;8.68;;;5.45;;
65879;SDS011;52661;51.364;6.054;2022-08-19T13:50:22;11.00;;;5.55;;
65879;SDS011;52661;51.364;6.054;2022-08-19T13:52:50;9.82;;;5.32;;
65879;SDS011;52661;51.364;6.054;2022-08-19T13:55:16;12.85;;;6.30;;
65879;SDS011;52661;51.364;6.054;2022-08-19T13:57:42;10.35;;;5.75;;
65879;SDS011;52661;51.364;6.054;2022-08-19T14:00:08;13.38;;;6.57;;
65879;SDS011;52661;51.364;6.054;2022-08-19T14:02:37;11.68;;;6.20;;
65879;SDS011;52661;51.364;6.054;2022-08-19T14:05:03;12.45;;;5.93;;
65879;SDS011;52661;51.364;6.054;2022-08-19T14:07:30;10.40;;;5.97;;
65879;SDS011;52661;51.364;6.054;2022-08-19T14:09:55;10.18;;;4.80;;
65879;SDS011;52661;51.364;6.054;2022-08-19T14:12:20;10.07;;;5.20;;
65879;SDS011;52661;51.364;6.054;2022-08-19T14:14:46;10.07;;;4.63;;
65879;SDS011;52661;51.364;6.054;2022-08-19T14:17:12;8.30;;;3.70;;
65879;SDS011;52661;51.364;6.054;2022-08-19T14:19:37;9.45;;;3.63;;
65879;SDS011;52661;51.364;6.054;2022-08-19T14:22:03;9.70;;;4.90;;
65879;SDS011;52661;51.364;6.054;2022-08-19T14:24:29;6.63;;;2.70;;
65879;SDS011;52661;51.364;6.054;2022-08-19T14:26:54;6.68;;;3.60;;
65879;SDS011;52661;51.364;6.054;2022-08-19T14:29:20;7.40;;;4.10;;
65879;SDS011;52661;51.364;6.054;2022-08-19T14:31:45;7.72;;;3.67;;
65879;SDS011;52661;51.364;6.054;2022-08-19T14:34:11;7.00;;;3.10;;
65879;SDS011;52661;51.364;6.054;2022-08-19T14:36:37;6.47;;;3.00;;
65879;SDS011;52661;51.364;6.054;2022-08-19T14:39:03;9.35;;;2.90;;
65879;SDS011;52661;51.364;6.054;2022-08-19T14:41:29;6.57;;;3.03;;
65879;SDS011;52661;51.364;6.054;2022-08-19T14:43:55;7.57;;;2.97;;
65879;SDS011;52661;51.364;6.054;2022-08-19T14:46:22;5.35;;;2.72;;
65879;SDS011;52661;51.364;6.054;2022-08-19T14:48:50;8.05;;;3.20;;
65879;SDS011;52661;51.364;6.054;2022-08-19T14:51:16;5.40;;;2.33;;
65879;SDS011;52661;51.364;6.054;2022-08-19T14:53:43;6.13;;;2.35;;
65879;SDS011;52661;51.364;6.054;2022-08-19T14:56:09;5.45;;;2.50;;
65879;SDS011;52661;51.364;6.054;2022-08-19T15:01:01;8.77;;;2.40;;